Time;durP1;ratioP1;P1;durP2;ratioP2;P2;SDS_P1;SDS_P2;PMS_P1;PMS_P2;Temp;Humidity;BMP_temperature;BMP_pressure;BME280_temperature;BME280_humidity;BME280_pressure;Samples;Min_cycle;Max_cycle;Signal;HPM_P1;HPM_P2
2022/06/22 00:00:01;;;;;;;8.18;4.78;;;;;;;22.57;57.84;98459.72;5141999;28;20057;-90
2022/06/22 00:03:03;;;;;;;7.90;5.43;;;;;;;22.56;57.63;98478.88;5142357;28;20417;-89
2022/06/22 00:05:54;;;;;;;7.95;4.82;;;;;;;22.52;58.53;98494.75;5143467;28;20162;-90
2022/06/22 00:08:46;;;;;;;10.65;5.22;;;;;;;22.37;58.90;98478.97;5143811;28;20061;-90
2022/06/22 00:11:43;;;;;;;9.25;4.72;;;;;;;22.35;58.08;98477.56;5144393;28;20144;-90
2022/06/22 00:14:44;;;;;;;7.03;4.93;;;;;;;22.33;57.60;98476.97;5144306;28;20081;-90
2022/06/22 00:17:38;;;;;;;10.48;5.00;;;;;;;22.35;57.42;98469.44;5132863;28;20078;-89
2022/06/22 00:20:32;;;;;;;6.63;4.63;;;;;;;22.38;57.13;98467.09;5142485;28;20421;-89
2022/06/22 00:23:27;;;;;;;6.93;4.95;;;;;;;22.35;57.36;98459.50;5147365;28;20133;-89
2022/06/22 00:26:23;;;;;;;6.88;4.50;;;;;;;22.33;57.43;98458.91;5160869;28;20529;-90
2022/06/22 00:29:19;;;;;;;9.35;4.75;;;;;;;22.28;57.74;98458.75;5145935;28;20055;-89
2022/06/22 00:32:24;;;;;;;8.10;4.95;;;;;;;22.10;57.96;98442.63;5146620;28;20065;-90
2022/06/22 00:35:42;;;;;;;5.63;5.05;;;;;;;21.78;58.75;98405.09;5146725;28;20074;-90
2022/06/22 00:38:32;;;;;;;6.70;4.95;;;;;;;21.96;58.08;98420.41;5146115;28;20054;-89
2022/06/22 00:41:25;;;;;;;9.05;5.38;;;;;;;21.84;58.12;98416.84;5138674;28;20043;-89
2022/06/22 00:44:17;;;;;;;8.15;4.88;;;;;;;21.95;58.86;98441.19;5146136;28;20061;-90
2022/06/22 00:47:23;;;;;;;7.32;5.00;;;;;;;21.76;58.23;98434.19;5131939;28;20062;-90
2022/06/22 00:50:21;;;;;;;6.38;4.95;;;;;;;21.70;59.50;98427.03;5145143;28;20065;-90
2022/06/22 00:53:22;;;;;;;10.45;4.93;;;;;;;21.91;59.81;98452.66;5130609;28;20042;-90
2022/06/22 00:56:37;;;;;;;6.93;5.30;;;;;;;21.67;60.33;98465.25;5145707;28;20466;-89
2022/06/22 01:00:25;;;;;;;6.85;5.15;;;;;;;21.58;59.55;98456.63;5159890;28;20058;-89
2022/06/22 01:04:04;;;;;;;6.68;4.63;;;;;;;21.52;60.18;98450.31;5138334;28;20058;-89
2022/06/22 01:07:11;;;;;;;6.30;4.68;;;;;;;21.57;60.28;98460.41;5127743;28;20054;-88
2022/06/22 01:10:12;;;;;;;7.80;5.57;;;;;;;21.47;60.61;98439.34;5145862;28;20109;-90
2022/06/22 01:13:16;;;;;;;9.57;4.95;;;;;;;21.56;60.72;98474.94;5132059;28;20238;-89
2022/06/22 01:16:23;;;;;;;8.50;5.55;;;;;;;21.51;60.96;98475.59;5145672;28;20059;-90
2022/06/22 01:19:46;;;;;;;11.13;6.15;;;;;;;21.37;62.29;98476.84;5145555;28;20601;-90
2022/06/22 01:23:34;;;;;;;15.52;6.15;;;;;;;21.63;61.81;98497.25;5133816;28;20126;-89
2022/06/22 01:27:02;;;;;;;10.10;6.38;;;;;;;21.53;61.85;98505.88;5123509;29;20131;-89
2022/06/22 01:29:56;;;;;;;10.35;6.00;;;;;;;21.35;62.41;98498.63;5113827;28;20057;-89
2022/06/22 01:32:46;;;;;;;;;;;;;;;21.37;61.94;98503.81;5132089;28;20066;-89
2022/06/22 01:35:38;;;;;;;15.13;6.30;;;;;;;21.13;62.35;98440.78;5145905;28;20052;-89
2022/06/22 01:38:30;;;;;;;8.75;5.90;;;;;;;21.49;62.00;98475.03;5144586;28;20432;-90
2022/06/22 01:42:00;;;;;;;13.25;6.72;;;;;;;21.51;61.81;98451.34;5145169;28;20409;-89
2022/06/22 01:45:01;;;;;;;10.15;6.78;;;;;;;21.56;61.49;98464.16;5126278;28;20151;-89
2022/06/22 01:47:59;;;;;;;9.30;6.22;;;;;;;21.49;61.36;98458.00;5153695;28;20059;-89
2022/06/22 01:50:55;;;;;;;7.53;5.65;;;;;;;21.21;62.48;98451.25;5136082;28;20113;-90
2022/06/22 01:53:48;;;;;;;15.02;6.22;;;;;;;21.21;62.33;98455.84;5148745;28;20055;-90
2022/06/22 01:56:48;;;;;;;8.52;6.22;;;;;;;21.29;62.13;98450.13;5147686;28;20412;-90
2022/06/22 01:59:51;;;;;;;8.75;6.35;;;;;;;21.22;61.84;98430.50;5148159;28;20058;-90
2022/06/22 02:02:56;;;;;;;14.48;6.32;;;;;;;21.23;61.99;98434.88;5148523;28;20077;-90
2022/06/22 02:06:01;;;;;;;10.60;6.32;;;;;;;21.46;60.96;98448.50;5148394;28;20131;-90
2022/06/22 02:08:52;;;;;;;7.88;5.93;;;;;;;21.21;61.17;98462.06;5147930;28;20055;-90
2022/06/22 02:11:47;;;;;;;8.02;5.72;;;;;;;21.20;61.48;98484.69;5148850;28;20047;-90
2022/06/22 02:14:40;;;;;;;9.38;6.30;;;;;;;21.29;61.23;98491.41;5148640;28;20063;-90
2022/06/22 02:17:36;;;;;;;9.25;6.47;;;;;;;21.10;62.42;98471.72;5133673;28;20207;-90
2022/06/22 02:20:34;;;;;;;10.15;6.68;;;;;;;21.46;61.40;98513.25;5148894;28;20429;-90
2022/06/22 02:23:36;;;;;;;16.27;7.05;;;;;;;21.33;62.04;98486.41;5148609;28;20062;-92
2022/06/22 02:26:42;;;;;;;12.15;6.80;;;;;;;21.46;61.49;98471.97;5149434;28;20158;-90
2022/06/22 02:29:38;;;;;;;11.40;6.97;;;;;;;21.76;61.11;98507.06;5148479;28;20080;-90
2022/06/22 02:32:35;;;;;;;11.50;6.97;;;;;;;21.70;61.43;98486.38;5163564;28;20062;-90
2022/06/22 02:35:26;;;;;;;15.35;7.22;;;;;;;21.70;60.91;98499.88;5164950;28;20038;-90
2022/06/22 02:38:16;;;;;;;10.23;6.95;;;;;;;21.67;60.77;98493.03;5152287;28;20046;-90
2022/06/22 02:44:31;;;;;;;8.68;6.18;;;;;;;21.55;61.09;98490.28;5154263;28;20063;-90
2022/06/22 02:47:42;;;;;;;22.27;7.07;;;;;;;21.47;60.64;98479.81;5168083;28;20030;-90
2022/06/22 02:50:51;;;;;;;9.35;6.22;;;;;;;21.55;60.44;98470.59;5155021;28;20045;-91
2022/06/22 02:53:43;;;;;;;8.82;6.22;;;;;;;21.49;59.99;98433.72;5146168;28;20455;-91
2022/06/22 02:56:38;;;;;;;10.20;6.60;;;;;;;21.46;60.01;98428.81;5146469;28;20165;-90
2022/06/22 02:59:29;;;;;;;12.13;7.32;;;;;;;21.50;60.40;98411.94;5130966;28;20069;-90
2022/06/22 03:02:23;;;;;;;13.00;6.80;;;;;;;21.64;60.13;98427.94;5145578;28;20066;-90
2022/06/22 03:05:15;;;;;;;11.55;6.28;;;;;;;21.76;60.14;98436.91;5146849;28;20101;-90
2022/06/22 03:08:07;;;;;;;8.93;6.10;;;;;;;21.50;59.84;98392.22;5145755;28;20062;-90
2022/06/22 03:11:01;;;;;;;9.52;6.20;;;;;;;21.74;60.31;98434.41;5146197;28;20134;-90
2022/06/22 03:14:26;;;;;;;15.02;8.35;;;;;;;21.81;59.72;98434.31;5145614;28;20066;-90
2022/06/22 03:17:19;;;;;;;13.85;6.78;;;;;;;21.54;59.86;98418.50;5146577;28;20062;-90
2022/06/22 03:20:16;;;;;;;16.08;6.90;;;;;;;21.79;59.41;98448.06;5145947;28;20448;-90
2022/06/22 03:23:21;;;;;;;13.13;6.53;;;;;;;21.43;61.08;98453.53;5145739;28;20062;-90
2022/06/22 03:26:19;;;;;;;14.57;6.95;;;;;;;21.33;61.36;98448.66;5144985;28;20449;-90
2022/06/22 03:29:35;;;;;;;12.10;6.00;;;;;;;21.53;60.74;98465.44;5144385;28;20061;-90
2022/06/22 03:32:38;;;;;;;12.23;7.15;;;;;;;21.27;60.74;98428.78;5144600;28;20112;-90
2022/06/22 03:35:34;;;;;;;11.75;6.70;;;;;;;21.15;61.13;98454.03;5145482;28;20201;-91
2022/06/22 03:38:39;;;;;;;11.85;6.80;;;;;;;21.21;61.21;98483.63;5144274;28;20050;-89
2022/06/22 03:41:33;;;;;;;13.18;6.95;;;;;;;21.24;61.25;98476.97;5143583;28;20473;-91
2022/06/22 03:44:50;;;;;;;9.02;6.72;;;;;;;21.46;60.77;98478.19;5145192;28;20058;-90
2022/06/22 03:47:53;;;;;;;10.32;6.93;;;;;;;20.96;61.04;98437.03;5159686;28;20058;-91
2022/06/22 03:51:05;;;;;;;10.80;6.78;;;;;;;21.43;61.55;98486.72;5143651;28;20069;-90
2022/06/22 03:54:15;;;;;;;13.40;7.38;;;;;;;21.26;61.17;98474.88;5139233;28;20129;-91
2022/06/22 03:57:08;;;;;;;10.55;6.70;;;;;;;21.23;61.00;98467.22;5144254;28;20497;-91
2022/06/22 03:59:59;;;;;;;12.80;7.20;;;;;;;21.41;61.08;98467.22;5131499;28;20153;-91
2022/06/22 04:02:49;;;;;;;12.70;6.90;;;;;;;21.42;61.21;98500.41;5144744;28;20109;-90
2022/06/22 04:05:43;;;;;;;13.00;6.85;;;;;;;21.64;60.76;98507.00;5130031;28;20053;-90
2022/06/22 04:08:39;;;;;;;13.50;7.50;;;;;;;21.61;60.08;98479.66;5144242;28;20061;-91
2022/06/22 04:11:40;;;;;;;10.40;6.72;;;;;;;21.57;60.20;98482.78;5144401;28;20047;-91
2022/06/22 04:14:42;;;;;;;17.15;7.45;;;;;;;21.70;59.87;98508.78;5143336;28;20193;-87
2022/06/22 04:17:46;;;;;;;8.43;6.63;;;;;;;21.51;60.36;98499.88;5148191;28;20137;-86
2022/06/22 04:20:51;;;;;;;8.45;6.60;;;;;;;21.69;60.46;98506.31;5141269;28;20425;-86
2022/06/22 04:23:51;;;;;;;12.90;7.05;;;;;;;21.58;60.22;98480.91;5141383;28;20071;-87
2022/06/22 04:26:50;;;;;;;20.88;7.07;;;;;;;21.72;60.61;98495.06;5140100;28;20063;-86
2022/06/22 04:29:52;;;;;;;9.93;6.75;;;;;;;21.92;60.41;98514.53;5140372;28;20062;-87
2022/06/22 04:33:02;;;;;;;11.73;7.07;;;;;;;21.94;59.74;98498.09;5124571;28;20481;-86
2022/06/22 04:36:01;;;;;;;11.02;6.72;;;;;;;21.75;59.53;98498.13;5135633;28;20177;-85
2022/06/22 04:39:05;;;;;;;13.23;7.55;;;;;;;21.82;59.90;98506.16;5137091;28;20058;-86
2022/06/22 04:41:55;;;;;;;11.82;7.35;;;;;;;21.78;59.57;98489.56;5129366;28;20083;-87
2022/06/22 04:44:49;;;;;;;16.08;7.03;;;;;;;21.78;58.99;98475.25;5129241;28;20078;-87
2022/06/22 04:47:39;;;;;;;;;;;;;;;21.92;60.05;98513.69;5155246;28;20564;-86
2022/06/22 04:50:30;;;;;;;10.85;6.63;;;;;;;22.11;59.29;98504.47;5140207;28;20004;-89
2022/06/22 04:53:28;;;;;;;18.63;7.43;;;;;;;22.07;58.54;98486.28;5139646;28;20058;-88
2022/06/22 04:56:27;;;;;;;11.18;6.60;;;;;;;21.94;58.37;98498.91;5126313;28;20136;-89
2022/06/22 04:59:18;;;;;;;10.15;7.38;;;;;;;22.27;59.29;98492.22;5138350;28;20221;-86
2022/06/22 05:02:12;;;;;;;10.85;6.93;;;;;;;22.22;59.22;98479.44;5139300;28;20181;-86
2022/06/22 05:05:20;;;;;;;13.30;7.70;;;;;;;22.44;59.21;98514.81;5155386;28;20061;-86
2022/06/22 05:08:19;;;;;;;15.15;7.30;;;;;;;22.22;58.52;98457.00;5142087;28;20289;-85
2022/06/22 05:11:25;;;;;;;21.38;7.70;;;;;;;22.47;57.90;98489.22;5156595;28;20544;-86
2022/06/22 05:14:32;;;;;;;14.63;7.03;;;;;;;22.73;58.12;98517.66;5156833;28;20058;-85
2022/06/22 05:17:35;;;;;;;10.43;6.50;;;;;;;22.87;57.73;98524.47;5143973;28;20641;-85
2022/06/22 05:20:30;;;;;;;11.38;6.35;;;;;;;22.74;56.98;98509.31;5143861;28;20211;-85
2022/06/22 05:23:25;;;;;;;20.60;8.30;;;;;;;22.83;57.05;98507.09;5128127;28;20082;-86
2022/06/22 05:26:24;;;;;;;14.80;7.03;;;;;;;22.82;56.47;98505.47;5143604;28;20065;-85
2022/06/22 05:29:32;;;;;;;13.98;7.38;;;;;;;22.91;56.53;98506.75;5144075;28;20122;-86
2022/06/22 05:32:30;;;;;;;20.60;7.60;;;;;;;22.90;56.71;98521.31;5144970;28;20181;-85
2022/06/22 05:35:32;;;;;;;16.77;6.97;;;;;;;22.85;57.76;98521.22;5119106;28;20055;-85
2022/06/22 05:38:23;;;;;;;14.27;7.07;;;;;;;22.86;57.12;98533.66;5143034;28;20442;-85
2022/06/22 05:41:16;;;;;;;18.30;7.03;;;;;;;22.94;56.90;98538.72;5143507;28;20125;-86
2022/06/22 05:44:13;;;;;;;19.10;6.95;;;;;;;;;;5143633;28;20082;-85
2022/06/22 05:47:04;;;;;;;19.65;7.13;;;;;;;23.10;55.86;98526.38;5143532;28;20051;-85
2022/06/22 05:50:12;;;;;;;17.65;6.95;;;;;;;23.02;55.69;98548.38;5144248;28;20130;-85
2022/06/22 05:53:20;;;;;;;17.30;6.93;;;;;;;23.09;54.91;98549.09;5128980;28;20082;-85
2022/06/22 05:56:32;;;;;;;18.00;6.40;;;;;;;23.09;53.72;98561.78;5143129;28;20046;-85
2022/06/22 05:59:41;;;;;;;13.15;5.90;;;;;;;22.73;56.16;98550.91;5144471;28;20051;-85
2022/06/22 06:02:43;;;;;;;19.23;6.63;;;;;;;22.92;55.21;98537.31;5144279;28;20585;-85
2022/06/22 06:05:48;;;;;;;13.43;6.18;;;;;;;23.22;54.47;98520.97;5118113;28;20061;-85
2022/06/22 06:08:41;;;;;;;;;;;;;;;23.61;53.47;98534.81;5130259;28;20059;-85
2022/06/22 06:11:38;;;;;;;13.05;6.40;;;;;;;23.70;53.45;98527.13;5144262;28;19922;-85
2022/06/22 06:14:37;;;;;;;11.52;6.18;;;;;;;23.79;53.11;98556.28;5145272;28;20177;-85
2022/06/22 06:17:34;;;;;;;12.40;7.15;;;;;;;23.76;54.42;98543.25;5143005;28;20109;-85
2022/06/22 06:20:48;;;;;;;12.05;6.45;;;;;;;23.98;55.40;98556.13;5142288;28;20424;-85
2022/06/22 06:23:49;;;;;;;10.85;6.18;;;;;;;23.85;53.54;98549.94;5142999;28;20532;-85
2022/06/22 06:30:15;;;;;;;10.38;5.80;;;;;;;23.81;53.25;98575.84;5143373;28;20051;-86
2022/06/22 06:33:27;;;;;;;9.30;5.15;;;;;;;23.68;52.44;98578.81;5141655;28;20053;-86
2022/06/22 06:36:24;;;;;;;7.70;5.85;;;;;;;23.58;52.99;98573.97;5143544;28;20046;-85
2022/06/22 06:39:21;;;;;;;9.40;5.35;;;;;;;23.92;53.18;98595.81;5141541;28;20066;-85
2022/06/22 06:42:22;;;;;;;11.60;6.10;;;;;;;23.93;52.37;98602.88;5143540;28;20769;-86
2022/06/22 06:45:16;;;;;;;11.93;5.20;;;;;;;23.76;52.29;98594.66;5160763;28;20460;-86
2022/06/22 06:48:13;;;;;;;11.10;5.10;;;;;;;23.97;50.70;98624.88;5127564;28;20620;-86
2022/06/22 06:51:05;;;;;;;9.45;4.78;;;;;;;24.01;49.44;98615.22;5141441;28;20058;-86
2022/06/22 06:54:03;;;;;;;8.43;4.95;;;;;;;24.02;50.20;98611.44;5142271;28;20450;-85
2022/06/22 06:57:00;;;;;;;12.77;5.25;;;;;;;23.92;50.84;98609.34;5142155;28;20072;-86
2022/06/22 06:59:55;;;;;;;8.65;5.15;;;;;;;23.50;52.84;98623.03;5128901;28;20105;-86
2022/06/22 07:02:45;;;;;;;10.40;5.70;;;;;;;24.82;49.89;98611.31;5138571;28;20059;-86
2022/06/22 07:05:35;;;;;;;9.85;5.28;;;;;;;24.67;50.68;98600.25;5130040;28;20061;-85
2022/06/22 07:08:34;;;;;;;9.63;5.45;;;;;;;24.96;50.03;98633.50;5142305;28;20145;-86
2022/06/22 07:11:40;;;;;;;11.88;4.97;;;;;;;24.76;50.22;98609.59;5165886;28;20054;-85
2022/06/22 07:14:40;;;;;;;15.75;5.90;;;;;;;24.73;49.69;98618.22;5162021;28;20070;-85
2022/06/22 07:17:32;;;;;;;8.95;5.50;;;;;;;24.82;50.43;98622.16;5166577;28;20066;-84
2022/06/22 07:20:31;;;;;;;9.05;5.57;;;;;;;24.74;50.37;98606.31;5153083;28;20046;-85
2022/06/22 07:23:34;;;;;;;10.88;5.68;;;;;;;24.78;50.13;98620.22;5167284;28;20171;-85
2022/06/22 07:26:55;;;;;;;8.73;5.13;;;;;;;24.34;50.56;98609.09;5152911;28;20137;-85
2022/06/22 07:29:59;;;;;;;7.95;5.65;;;;;;;24.51;51.09;98620.81;5149923;28;20061;-85
2022/06/22 07:33:19;;;;;;;10.35;5.60;;;;;;;24.28;50.90;98621.72;5143728;28;20047;-85
2022/06/22 07:36:16;;;;;;;7.85;5.22;;;;;;;24.55;51.24;98618.44;5151406;28;20054;-85
2022/06/22 07:39:16;;;;;;;10.05;5.63;;;;;;;24.52;50.19;98616.22;5166811;28;20031;-84
2022/06/22 07:42:14;;;;;;;12.13;5.43;;;;;;;24.74;49.96;98608.22;5160711;28;20091;-85
2022/06/22 07:45:04;;;;;;;10.88;5.68;;;;;;;24.66;50.81;98590.44;5166780;28;20074;-85
2022/06/22 07:48:05;;;;;;;10.25;4.82;;;;;;;24.64;51.30;98597.19;5161325;28;20042;-85
2022/06/22 07:50:58;;;;;;;12.38;6.53;;;;;;;24.83;49.40;98591.28;5156551;23;20337;-69
2022/06/22 07:54:15;;;;;;;8.35;5.43;;;;;;;24.67;49.36;98588.56;5117153;29;20059;-68
2022/06/22 07:57:17;;;;;;;8.90;5.07;;;;;;;24.73;48.96;98579.44;5119801;29;20101;-69
2022/06/22 08:00:16;;;;;;;14.55;5.90;;;;;;;24.57;49.29;98581.91;5109277;29;20053;-68
2022/06/22 08:03:20;;;;;;;12.52;5.63;;;;;;;24.75;49.09;98578.13;5120830;28;20138;-70
2022/06/22 08:06:14;;;;;;;;;;;;;;;24.46;49.30;98576.53;5121629;29;20070;-70
2022/06/22 08:09:31;;;;;;;15.73;5.53;;;;;;;24.48;49.64;98567.09;5120542;29;20057;-70
2022/06/22 08:12:42;;;;;;;19.05;5.18;;;;;;;24.44;49.04;98565.13;5118761;29;20184;-69
2022/06/22 08:15:45;;;;;;;12.88;5.63;;;;;;;24.56;49.98;98571.28;5118464;29;20094;-69
2022/06/22 08:18:36;;;;;;;12.10;4.97;;;;;;;24.69;49.35;98568.25;5121440;29;20095;-69
2022/06/22 08:21:28;;;;;;;8.10;5.00;;;;;;;24.80;48.73;98572.81;5119567;29;20411;-69
2022/06/22 08:24:20;;;;;;;10.82;5.57;;;;;;;24.98;48.35;98566.28;5120613;29;20066;-68
2022/06/22 08:27:17;;;;;;;14.98;5.63;;;;;;;24.82;49.81;98570.66;5120586;29;20556;-70
2022/06/22 08:30:09;;;;;;;14.70;5.82;;;;;;;24.84;48.31;98571.25;5120833;29;20058;-71
2022/06/22 08:33:05;;;;;;;13.82;5.20;;;;;;;24.79;49.62;98581.16;5120517;29;20145;-70
2022/06/22 08:36:01;;;;;;;8.98;5.72;;;;;;;24.68;49.16;98574.75;5106980;29;20154;-68
2022/06/22 08:39:32;;;;;;;9.48;5.20;;;;;;;24.64;50.89;98576.31;5120808;29;20074;-69
2022/06/22 08:42:38;;;;;;;8.77;5.32;;;;;;;24.62;50.79;98578.44;5103377;28;20429;-68
2022/06/22 08:46:02;;;;;;;8.70;5.78;;;;;;;24.82;48.62;98589.63;5122640;29;20081;-68
2022/06/22 08:49:10;;;;;;;11.98;6.70;;;;;;;24.58;50.27;98588.16;5111677;29;20055;-67
2022/06/22 08:52:06;;;;;;;14.00;6.72;;;;;;;24.62;49.05;98594.72;5116612;28;20047;-71
2022/06/22 08:55:25;;;;;;;8.57;6.78;;;;;;;24.51;50.09;98585.59;5116106;29;20062;-71
2022/06/22 08:58:47;;;;;;;11.35;6.20;;;;;;;24.61;49.87;98593.91;5117473;29;20122;-69
2022/06/22 09:01:44;;;;;;;12.65;6.68;;;;;;;24.64;48.74;98597.19;5117136;29;20058;-69
2022/06/22 09:04:56;;;;;;;13.27;7.10;;;;;;;24.62;49.90;98600.13;5102880;29;20058;-69
2022/06/22 09:08:16;;;;;;;10.95;6.13;;;;;;;24.61;49.89;98593.91;5100823;29;20174;-69
2022/06/22 09:11:18;;;;;;;8.73;6.03;;;;;;;24.62;50.54;98613.69;5084420;29;20908;-69
2022/06/22 09:14:37;;;;;;;11.82;6.20;;;;;;;24.73;49.49;98610.06;5109312;29;20051;-70
2022/06/22 09:17:56;;;;;;;12.45;6.10;;;;;;;24.81;49.81;98609.69;5123166;29;20058;-69
2022/06/22 09:21:05;;;;;;;10.25;6.05;;;;;;;24.61;51.58;98602.03;5121314;29;20557;-70
2022/06/22 09:24:04;;;;;;;9.75;5.75;;;;;;;24.80;51.37;98613.47;5121330;29;20106;-69
2022/06/22 09:27:20;;;;;;;12.80;6.07;;;;;;;24.91;49.50;98610.94;5123670;29;20410;-68
2022/06/22 09:30:49;;;;;;;29.55;5.82;;;;;;;25.18;48.22;98617.38;5113698;28;20069;-68
2022/06/22 09:34:06;;;;;;;17.00;6.40;;;;;;;25.09;49.70;98622.34;5113600;28;20055;-68
2022/06/22 09:37:06;;;;;;;10.05;5.60;;;;;;;24.94;49.75;98622.13;5110911;29;20118;-69
2022/06/22 09:40:34;;;;;;;7.90;5.45;;;;;;;25.07;50.02;98619.06;5123704;29;20082;-68
2022/06/22 09:43:49;;;;;;;15.70;5.63;;;;;;;25.01;51.46;98624.66;5114630;29;20514;-68
2022/06/22 09:46:54;;;;;;;7.90;5.38;;;;;;;25.08;50.56;98628.84;5123931;29;20058;-69
2022/06/22 09:50:09;;;;;;;13.05;5.63;;;;;;;25.17;50.81;98621.16;5123045;29;20047;-69
2022/06/22 09:53:02;;;;;;;13.30;5.80;;;;;;;25.47;49.67;98628.09;5123113;29;20252;-69
2022/06/22 09:56:35;;;;;;;13.33;6.27;;;;;;;25.49;49.74;98632.19;5120698;28;20062;-71
2022/06/22 09:59:44;;;;;;;13.27;6.07;;;;;;;25.41;50.52;98626.38;5109993;29;20824;-71
2022/06/22 10:02:44;;;;;;;15.02;6.15;;;;;;;25.46;48.75;98634.59;5120584;28;20050;-73
2022/06/22 10:05:55;;;;;;;15.50;6.13;;;;;;;25.68;49.11;98640.06;5119550;28;20078;-71
2022/06/22 10:09:14;;;;;;;12.95;5.72;;;;;;;25.59;48.44;98647.81;5121407;29;20055;-70
2022/06/22 10:12:27;;;;;;;12.63;6.10;;;;;;;25.59;48.72;98642.38;5110424;28;20122;-69
2022/06/22 10:15:45;;;;;;;12.63;5.97;;;;;;;25.51;50.74;98645.53;5115213;28;20643;-71
2022/06/22 10:18:52;;;;;;;9.32;5.93;;;;;;;25.48;51.59;98652.28;5121235;29;20528;-72
2022/06/22 10:22:17;;;;;;;10.15;5.63;;;;;;;25.46;50.86;98648.16;5114955;28;20683;-71
2022/06/22 10:25:25;;;;;;;14.65;5.80;;;;;;;25.60;53.50;98644.03;5091439;28;20178;-72
2022/06/22 10:28:39;;;;;;;10.32;6.00;;;;;;;25.52;51.83;98647.16;5100210;29;20079;-72
2022/06/22 10:32:00;;;;;;;9.13;6.18;;;;;;;25.54;52.18;98642.31;5117154;28;20110;-70
2022/06/22 10:35:05;;;;;;;14.82;6.50;;;;;;;25.65;51.84;98633.25;5119909;28;20082;-70
2022/06/22 10:38:34;;;;;;;14.65;7.50;;;;;;;25.65;50.94;98644.09;5117876;29;20051;-69
2022/06/22 10:45:11;;;;;;;15.18;6.55;;;;;;;25.67;52.99;98650.13;5116628;28;20168;-71
2022/06/22 10:48:34;;;;;;;12.18;6.70;;;;;;;25.47;53.34;98650.66;5120326;29;20669;-71
2022/06/22 10:51:30;;;;;;;12.48;7.18;;;;;;;25.55;54.67;98658.34;5118648;29;20097;-72
2022/06/22 10:54:33;;;;;;;10.43;7.70;;;;;;;25.39;54.88;98664.63;5118090;29;20055;-71
2022/06/22 10:57:58;;;;;;;12.63;7.80;;;;;;;25.40;55.41;98668.19;5119077;29;20538;-71
2022/06/22 11:00:51;;;;;;;12.33;7.43;;;;;;;25.26;57.04;98678.53;5119546;29;20562;-72
2022/06/22 11:03:57;;;;;;;13.77;7.90;;;;;;;25.52;55.86;98679.75;5118093;29;20827;-71
2022/06/22 11:07:29;;;;;;;16.33;8.02;;;;;;;25.38;59.01;98681.16;5115684;28;20446;-71
2022/06/22 11:10:26;;;;;;;20.38;7.97;;;;;;;25.33;57.31;98672.94;5119662;29;20070;-70
2022/06/22 11:13:45;;;;;;;16.60;7.35;;;;;;;25.38;55.32;98690.13;5115895;29;20138;-70
2022/06/22 11:17:09;;;;;;;16.65;7.53;;;;;;;25.34;56.85;98693.59;5112101;29;20070;-70
2022/06/22 11:20:21;;;;;;;13.98;7.60;;;;;;;25.12;57.17;98669.88;5099368;29;20130;-70
2022/06/22 11:23:17;;;;;;;14.43;8.65;;;;;;;25.23;56.50;98693.44;5117720;29;20062;-70
2022/06/22 11:33:46;;;;;;;15.05;8.48;;;;;;;25.18;58.56;98712.31;5119972;28;20058;-70
2022/06/22 11:37:00;;;;;;;20.27;9.20;;;;;;;25.14;60.13;98719.31;5125321;28;20059;-71
2022/06/22 11:40:48;;;;;;;15.75;9.93;;;;;;;25.47;58.11;98717.69;5106981;29;20734;-71
2022/06/22 11:44:01;;;;;;;18.77;11.23;;;;;;;25.35;58.35;98708.78;5118549;28;20058;-71
2022/06/22 11:46:55;;;;;;;16.10;11.25;;;;;;;25.60;57.81;98722.78;5118393;29;20061;-70
2022/06/22 11:50:19;;;;;;;15.95;11.25;;;;;;;25.64;57.82;98717.66;5119157;29;20081;-69
2022/06/22 11:53:33;;;;;;;18.27;12.68;;;;;;;25.43;58.94;98719.22;5120088;28;20063;-73
2022/06/22 11:56:43;;;;;;;18.73;13.07;;;;;;;25.42;59.15;98725.72;5107439;29;20059;-73
2022/06/22 12:00:08;;;;;;;16.20;11.25;;;;;;;25.47;58.53;98717.69;5119856;29;20059;-70
2022/06/22 12:03:37;;;;;;;14.23;10.27;;;;;;;25.55;58.11;98722.69;5119837;29;20131;-71
2022/06/22 12:07:02;;;;;;;14.70;10.60;;;;;;;25.54;56.52;98713.72;5119464;29;20149;-72
2022/06/22 12:10:17;;;;;;;21.73;12.35;;;;;;;25.81;59.66;98712.25;5113532;29;20564;-73
2022/06/22 12:13:22;;;;;;;19.40;12.60;;;;;;;24.74;62.56;98701.22;5119083;29;20051;-73
2022/06/22 12:16:30;;;;;;;16.90;11.85;;;;;;;25.05;60.35;98701.75;5112442;29;20440;-73
2022/06/22 12:20:20;;;;;;;19.27;12.50;;;;;;;24.82;60.79;98697.28;5111068;29;20066;-74
2022/06/22 12:23:22;;;;;;;25.13;13.25;;;;;;;25.56;58.56;98691.75;5073605;29;20122;-73
2022/06/22 12:26:15;;;;;;;20.65;12.50;;;;;;;25.45;59.71;98689.97;5100781;29;20102;-73
2022/06/22 12:29:14;;;;;;;16.98;12.57;;;;;;;25.34;60.81;98680.84;5127443;28;20074;-73
2022/06/22 12:32:16;;;;;;;17.17;12.27;;;;;;;25.40;59.83;98676.31;5121511;28;20137;-73
2022/06/22 12:35:40;;;;;;;18.35;13.00;;;;;;;25.38;60.34;98673.03;5114052;29;20138;-73
2022/06/22 12:38:40;;;;;;;20.33;13.50;;;;;;;25.18;61.29;98671.63;5122447;29;20469;-73
2022/06/22 12:42:08;;;;;;;16.13;12.35;;;;;;;25.13;60.65;98663.38;5122968;29;20044;-72
2022/06/22 12:45:25;;;;;;;23.02;12.38;;;;;;;25.05;61.03;98664.59;5109709;29;20047;-72
2022/06/22 12:48:34;;;;;;;18.40;13.45;;;;;;;25.05;61.49;98666.50;5121820;29;20051;-72
2022/06/22 12:51:32;;;;;;;17.05;12.90;;;;;;;24.87;61.63;98661.28;5122669;28;20156;-71
2022/06/22 12:54:32;;;;;;;14.90;12.32;;;;;;;24.70;61.23;98645.84;5121635;29;20067;-72
2022/06/22 12:57:56;;;;;;;20.90;12.55;;;;;;;24.99;61.78;98649.31;5122835;29;20074;-72
2022/06/22 13:00:46;;;;;;;16.88;13.07;;;;;;;25.13;60.28;98643.59;5116989;29;20169;-73
2022/06/22 13:03:42;;;;;;;21.90;13.48;;;;;;;25.05;59.12;98655.66;5120438;29;20051;-72
2022/06/22 13:06:36;;;;;;;19.33;12.13;;;;;;;25.11;58.60;98643.00;5122762;29;20210;-71
2022/06/22 13:09:27;;;;;;;20.45;12.77;;;;;;;25.12;58.37;98642.75;5122532;29;20202;-72
2022/06/22 13:12:33;;;;;;;20.25;12.13;;;;;;;24.96;58.67;98643.53;5122205;29;20155;-70
2022/06/22 13:15:35;;;;;;;22.88;11.52;;;;;;;24.81;59.07;98636.81;5122038;29;20062;-72
2022/06/22 13:18:42;;;;;;;18.58;10.77;;;;;;;24.72;57.73;98638.25;5111860;29;20271;-72
2022/06/22 13:21:57;;;;;;;15.35;10.88;;;;;;;24.78;57.42;98628.34;5121876;28;20070;-72
2022/06/22 13:24:59;;;;;;;;;;;;;;;24.81;58.70;98622.44;5111650;29;20417;-72
2022/06/22 13:28:05;;;;;;;18.80;12.50;;;;;;;24.84;59.25;98614.63;5122378;29;19977;-73
2022/06/22 13:31:00;;;;;;;22.13;12.95;;;;;;;24.92;61.41;98615.28;5107997;29;20687;-73
2022/06/22 13:33:56;;;;;;;28.75;13.73;;;;;;;24.92;60.11;98599.81;5120862;29;20066;-73
2022/06/22 13:37:15;;;;;;;28.40;15.15;;;;;;;24.89;62.25;98615.78;5120987;29;20205;-73
2022/06/22 13:40:42;;;;;;;28.80;13.95;;;;;;;24.90;59.84;98607.41;5109802;29;20146;-71
2022/06/22 13:43:43;;;;;;;23.60;13.70;;;;;;;24.93;61.13;98611.50;5115480;29;20058;-74
2022/06/22 13:47:14;;;;;;;27.80;14.30;;;;;;;24.67;61.44;98608.38;5120418;29;20066;-73
2022/06/22 13:50:26;;;;;;;20.40;14.60;;;;;;;24.82;61.09;98605.91;5121767;29;20055;-73
2022/06/22 13:53:34;;;;;;;20.83;14.27;;;;;;;25.00;61.34;98604.00;5120331;28;20160;-71
2022/06/22 13:56:44;;;;;;;20.55;14.32;;;;;;;25.03;60.59;98600.81;5122070;29;20138;-71
2022/06/22 13:59:52;;;;;;;18.27;14.20;;;;;;;25.13;61.70;98601.00;5161330;23;20064;-66
2022/06/22 14:02:53;;;;;;;20.92;13.10;;;;;;;25.31;60.31;98598.03;5155393;28;20621;-68
2022/06/22 14:05:56;;;;;;;22.75;13.63;;;;;;;25.22;61.48;98599.50;5162849;28;20058;-72
2022/06/22 14:08:55;;;;;;;20.23;13.63;;;;;;;25.56;60.59;98591.28;5149858;28;20113;-71
2022/06/22 14:12:06;;;;;;;26.85;14.85;;;;;;;25.61;59.63;98590.56;5164280;28;20061;-71
2022/06/22 14:15:20;;;;;;;22.20;14.65;;;;;;;25.69;62.32;98590.13;5148860;28;20068;-71
2022/06/22 14:18:14;;;;;;;19.17;14.73;;;;;;;25.81;63.36;98587.31;5163121;28;20058;-71
2022/06/22 14:21:13;;;;;;;17.67;13.80;;;;;;;25.82;60.31;98597.09;5162265;28;20113;-71
2022/06/22 14:24:13;;;;;;;19.88;14.15;;;;;;;25.91;59.32;98588.25;5162781;28;20127;-70
2022/06/22 14:27:25;;;;;;;20.90;14.77;;;;;;;26.02;59.25;98583.75;5160742;28;20175;-68
2022/06/22 14:30:19;;;;;;;26.35;14.50;;;;;;;25.67;58.81;98589.56;5147350;28;20049;-72
2022/06/22 14:33:37;;;;;;;18.63;13.93;;;;;;;25.88;59.87;98590.66;5161358;28;20054;-70
2022/06/22 14:36:41;;;;;;;23.42;13.55;;;;;;;25.64;60.57;98590.88;5156104;28;20066;-69